Weather History for Hillsdale, MI

Change the Weather History Date:

Saturday, January 19, 2013

  Actual Average Record
Temperature  
Mean Temperature 42 °F -  
Max Temperature 48 °F 30 °F 53 °F (1949)
Min Temperature 35 °F 12 °F -10 °F (1984)
Degree Days  
Heating Degree Days 24    
Moisture  
Dew Point 28 °F    
Average Humidity 60    
Maximum Humidity 70    
Minimum Humidity 50    
Precipitation  
Precipitation 0.00 in - - ()
Sea Level Pressure  
Sea Level Pressure 29.84 in    
Wind  
Wind Speed 14 mph (SW)    
Max Wind Speed 22 mph    
Max Gust Speed 33 mph    
Visibility 10 miles    
Events      
Averages and records for this station are not official NWS values.
T = Trace of Precipitation, MM = Missing Value Source: NWS Daily Summary

Daily Weather History Graph

Daily Weather History Graph

Search for Another Location

Airport:

Trip Planner

Search our weather history database for the weather conditions in past years. The results will help you decide how hot, cold, wet, or windy it might be!

Date:

Astronomy

Jan. 19, 2013 Rise Set
Actual Time 8:01 AM EST 5:37 PM EST
Civil Twilight 7:30 AM EST 6:07 PM EST
Nautical Twilight 6:56 AM EST 6:42 PM EST
Astronomical Twilight 6:23 AM EST 7:15 PM EST
Moon 12:04 PM EST (1/19) 1:33 AM EST (1/19)
Length of Visible Light 10h 36m
Length of Day
9h 36m
First Quarter, 57% of the Moon is Illuminated
Jan 19
First Quarter
Jan 26
Full
Feb 3
Last Quarter
Feb 10
New
Feb 17
First Quarter

Hourly Weather History & Observations

Time (EST) Temp. Windchill Dew Point Humidity Pressure Visibility Wind Dir Wind Speed Gust Speed Precip Events Conditions
12:15 AM 37.4 °F 28.2 °F 21.2 °F 52% 29.96 in 10.0 mi SW 16.1 mph 25.3 mph N/A   Clear
12:35 AM 37.4 °F 28.5 °F 21.2 °F 52% 29.95 in 10.0 mi SW 15.0 mph 23.0 mph N/A   Clear
12:55 AM 37.4 °F 28.2 °F 21.2 °F 52% 29.95 in 10.0 mi SW 16.1 mph 25.3 mph N/A   Clear
1:15 AM 37.4 °F 28.2 °F 23.0 °F 56% 29.94 in 10.0 mi SW 16.1 mph 23.0 mph N/A   Clear
1:35 AM 37.4 °F 28.5 °F 23.0 °F 56% 29.94 in 10.0 mi SSW 15.0 mph 20.7 mph N/A   Clear
1:55 AM 37.4 °F 28.2 °F 23.0 °F 56% 29.94 in 10.0 mi SW 16.1 mph 21.9 mph N/A   Clear
2:15 AM 37.4 °F 28.5 °F 23.0 °F 56% 29.94 in 10.0 mi SW 15.0 mph 21.9 mph N/A   Clear
2:35 AM 37.4 °F 29.3 °F 24.8 °F 60% 29.94 in 10.0 mi SW 12.7 mph 19.6 mph N/A   Clear
2:55 AM 37.4 °F 28.5 °F 24.8 °F 60% 29.94 in 10.0 mi SW 15.0 mph 19.6 mph N/A   Clear
3:15 AM 37.4 °F 28.9 °F 24.8 °F 60% 29.94 in 10.0 mi SW 13.8 mph 19.6 mph N/A   Clear
3:35 AM 37.4 °F 29.3 °F 24.8 °F 60% 29.94 in 10.0 mi SW 12.7 mph - N/A   Clear
3:55 AM 39.2 °F 32.5 °F 24.8 °F 56% 29.94 in 10.0 mi SW 10.4 mph 21.9 mph N/A   Clear
4:15 AM 39.2 °F 30.5 °F 24.8 °F 56% 29.94 in 10.0 mi SW 16.1 mph 21.9 mph N/A   Clear
4:35 AM 39.2 °F 30.8 °F 24.8 °F 56% 29.93 in 10.0 mi WSW 15.0 mph 23.0 mph N/A   Clear
4:55 AM 39.2 °F 31.6 °F 24.8 °F 56% 29.93 in 10.0 mi SW 12.7 mph 21.9 mph N/A   Clear
5:15 AM 39.2 °F 30.8 °F 24.8 °F 56% 29.93 in 10.0 mi SW 15.0 mph 21.9 mph N/A   Clear
5:35 AM 37.4 °F 28.2 °F 24.8 °F 60% 29.93 in 10.0 mi SW 16.1 mph 21.9 mph N/A   Clear
5:55 AM 37.4 °F 28.5 °F 26.6 °F 65% 29.93 in 10.0 mi SW 15.0 mph 20.7 mph N/A   Clear
6:15 AM 37.4 °F 29.3 °F 26.6 °F 65% 29.94 in 10.0 mi SW 12.7 mph 20.7 mph N/A   Clear
6:35 AM 37.4 °F 29.3 °F 26.6 °F 65% 29.94 in 10.0 mi SW 12.7 mph 19.6 mph N/A   Clear
6:55 AM 37.4 °F 30.3 °F 26.6 °F 65% 29.94 in 10.0 mi SW 10.4 mph - N/A   Clear
7:15 AM 37.4 °F 30.3 °F 26.6 °F 65% 29.94 in 10.0 mi SW 10.4 mph 17.3 mph N/A   Clear
7:35 AM 37.4 °F 30.3 °F 26.6 °F 65% 29.94 in 10.0 mi SW 10.4 mph 17.3 mph N/A   Clear
7:55 AM 35.6 °F 28.0 °F 26.6 °F 70% 29.94 in 10.0 mi SW 10.4 mph 17.3 mph N/A   Clear
8:15 AM 35.6 °F 28.0 °F 26.6 °F 70% 29.93 in 10.0 mi SW 10.4 mph - N/A   Clear
8:35 AM 35.6 °F 29.2 °F 26.6 °F 70% 29.94 in 10.0 mi SW 8.1 mph - N/A   Clear
8:55 AM 37.4 °F 30.8 °F 26.6 °F 65% 29.94 in 10.0 mi SSW 9.2 mph - N/A   Clear
9:15 AM 37.4 °F 29.8 °F 26.6 °F 65% 29.95 in 10.0 mi SSW 11.5 mph - N/A   Clear
9:35 AM 37.4 °F 30.3 °F 26.6 °F 65% 29.95 in 10.0 mi SSW 10.4 mph - N/A   Clear
9:55 AM 37.4 °F 30.3 °F 26.6 °F 65% 29.95 in 10.0 mi SW 10.4 mph - N/A   Clear
10:15 AM 39.2 °F 32.5 °F 26.6 °F 61% 29.94 in 10.0 mi SW 10.4 mph 20.7 mph N/A   Clear
10:35 AM 39.2 °F 31.2 °F 26.6 °F 61% 29.94 in 10.0 mi SW 13.8 mph 23.0 mph N/A   Clear
10:55 AM 42.8 °F 36.2 °F 28.4 °F 57% 29.93 in 10.0 mi SW 12.7 mph 20.7 mph N/A   Clear
11:15 AM 42.8 °F 34.8 °F 28.4 °F 57% 29.93 in 10.0 mi WSW 17.3 mph 23.0 mph N/A   Clear
11:35 AM 44.6 °F 38.4 °F 28.4 °F 53% 29.91 in 10.0 mi SW 12.7 mph - N/A   Clear
11:55 AM 44.6 °F 38.4 °F 28.4 °F 53% 29.89 in 10.0 mi SW 12.7 mph 24.2 mph N/A   Clear
12:15 PM 44.6 °F 37.2 °F 28.4 °F 53% 29.88 in 10.0 mi SSW 17.3 mph 23.0 mph N/A   Clear
12:35 PM 44.6 °F 37.8 °F 28.4 °F 53% 29.86 in 10.0 mi SW 15.0 mph 23.0 mph N/A   Clear
12:55 PM 44.6 °F 38.1 °F 28.4 °F 53% 29.84 in 10.0 mi WSW 13.8 mph 23.0 mph N/A   Clear
1:15 PM 44.6 °F 37.4 °F 28.4 °F 53% 29.82 in 10.0 mi SW 16.1 mph 19.6 mph N/A   Clear
1:35 PM 46.4 °F 40.7 °F 30.2 °F 53% 29.82 in 10.0 mi SW 12.7 mph 21.9 mph N/A   Clear
1:55 PM 46.4 °F 40.4 °F 30.2 °F 53% 29.80 in 10.0 mi SW 13.8 mph 25.3 mph N/A   Clear
2:35 PM 48.2 °F - 30.2 °F 50% 29.78 in 10.0 mi SW 17.3 mph 23.0 mph N/A   Clear
2:55 PM 46.4 °F 39.8 °F 30.2 °F 53% 29.77 in 10.0 mi SW 16.1 mph 26.5 mph N/A   Clear
3:15 PM 46.4 °F 40.4 °F 30.2 °F 53% 29.76 in 10.0 mi SW 13.8 mph 25.3 mph N/A   Clear
3:35 PM 46.4 °F 39.0 °F 30.2 °F 53% 29.75 in 10.0 mi SW 19.6 mph 26.5 mph N/A   Clear
3:55 PM 46.4 °F 39.8 °F 30.2 °F 53% 29.74 in 10.0 mi SSW 16.1 mph 24.2 mph N/A   Clear
4:15 PM 46.4 °F 41.1 °F 30.2 °F 53% 29.75 in 10.0 mi SSW 11.5 mph 17.3 mph N/A   Clear
4:35 PM 44.6 °F 38.8 °F 30.2 °F 57% 29.76 in 10.0 mi SW 11.5 mph 21.9 mph N/A   Scattered Clouds
4:55 PM 44.6 °F 38.8 °F 30.2 °F 57% 29.77 in 10.0 mi SW 11.5 mph - N/A   Scattered Clouds
5:15 PM 44.6 °F 39.7 °F 30.2 °F 57% 29.76 in 10.0 mi SW 9.2 mph - N/A   Mostly Cloudy
5:35 PM 44.6 °F 38.8 °F 30.2 °F 57% 29.75 in 10.0 mi SW 11.5 mph - N/A   Mostly Cloudy
5:55 PM 44.6 °F 39.7 °F 30.2 °F 57% 29.73 in 10.0 mi SSW 9.2 mph - N/A   Scattered Clouds
6:15 PM 44.6 °F 38.8 °F 30.2 °F 57% 29.73 in 10.0 mi SW 11.5 mph 23.0 mph N/A   Mostly Cloudy
6:35 PM 44.6 °F 38.1 °F 30.2 °F 57% 29.73 in 10.0 mi SW 13.8 mph 18.4 mph N/A   Mostly Cloudy
6:55 PM 44.6 °F 36.6 °F 30.2 °F 57% 29.73 in 10.0 mi SW 19.6 mph 23.0 mph N/A   Mostly Cloudy
7:15 PM 44.6 °F 38.1 °F 30.2 °F 57% 29.73 in 10.0 mi SW 13.8 mph 23.0 mph N/A   Mostly Cloudy
7:35 PM 44.6 °F 38.1 °F 32.0 °F 61% 29.71 in 10.0 mi SW 13.8 mph 24.2 mph N/A   Clear
7:55 PM 44.6 °F 37.4 °F 32.0 °F 61% 29.71 in 10.0 mi SW 16.1 mph 24.2 mph N/A   Clear
8:15 PM 42.8 °F 34.3 °F 32.0 °F 66% 29.69 in 10.0 mi SW 19.6 mph 25.3 mph N/A   Clear
8:35 PM 44.6 °F 37.8 °F 32.0 °F 61% 29.69 in 10.0 mi WSW 15.0 mph 26.5 mph N/A   Clear
8:55 PM 44.6 °F 37.8 °F 33.8 °F 66% 29.68 in 10.0 mi WSW 15.0 mph 26.5 mph N/A   Clear
9:15 PM 44.6 °F 36.1 °F 33.8 °F 66% 29.67 in 10.0 mi SW 21.9 mph 33.4 mph N/A   Clear
9:35 PM 44.6 °F 37.2 °F 33.8 °F 66% 29.67 in 10.0 mi WSW 17.3 mph 28.8 mph N/A   Clear
9:55 PM 44.6 °F 36.6 °F 33.8 °F 66% 29.67 in 10.0 mi WSW 19.6 mph 27.6 mph N/A   Scattered Clouds
10:15 PM 42.8 °F 34.8 °F 33.8 °F 70% 29.66 in 10.0 mi WSW 17.3 mph 26.5 mph N/A   Scattered Clouds
10:35 PM 44.6 °F 37.8 °F 33.8 °F 66% 29.65 in 10.0 mi WSW 15.0 mph 29.9 mph N/A   Mostly Cloudy
10:55 PM 42.8 °F 35.1 °F 33.8 °F 70% 29.64 in 10.0 mi WSW 16.1 mph 26.5 mph N/A   Overcast
11:15 PM 42.8 °F 35.1 °F 33.8 °F 70% 29.64 in 10.0 mi WSW 16.1 mph 25.3 mph N/A   Scattered Clouds
11:35 PM 42.8 °F 35.4 °F 33.8 °F 70% 29.64 in 10.0 mi WSW 15.0 mph 23.0 mph N/A   Scattered Clouds
11:55 PM 42.8 °F 35.1 °F 33.8 °F 70% 29.64 in 10.0 mi West 16.1 mph 29.9 mph N/A   Mostly Cloudy